createdAt,value
2023-04-26T00:00:40.305Z,-139.00
2023-04-26T00:03:10.492Z,-139.00
2023-04-26T00:05:42.915Z,-139.00
2023-04-26T00:08:12.515Z,-139.00
2023-04-26T00:10:42.005Z,-139.00
2023-04-26T00:13:11.348Z,-139.00
2023-04-26T00:15:40.798Z,-139.00
2023-04-26T00:18:10.129Z,24.71
2023-04-26T00:20:42.319Z,24.71
2023-04-26T00:23:12.248Z,24.71
2023-04-26T00:25:41.936Z,24.72
2023-04-26T00:28:11.422Z,24.71
2023-04-26T00:30:47.510Z,24.71
2023-04-26T00:33:16.803Z,24.71
2023-04-26T00:35:48.783Z,24.71
2023-04-26T00:38:18.104Z,24.71
2023-04-26T00:43:16.831Z,24.71
2023-04-26T00:45:46.188Z,24.71
2023-04-26T00:48:15.960Z,24.71
2023-04-26T00:50:48.096Z,24.71
2023-04-26T00:53:17.446Z,24.71
2023-04-26T00:58:16.201Z,24.71
2023-04-26T01:00:46.073Z,24.71
2023-04-26T01:05:44.712Z,24.72
2023-04-26T01:08:20.968Z,24.73
2023-04-26T01:10:50.391Z,24.71
2023-04-26T01:13:19.703Z,24.71
2023-04-26T01:15:49.106Z,24.71
2023-04-26T01:18:18.456Z,24.71
2023-04-26T01:20:48.614Z,24.71
2023-04-26T01:23:20.487Z,24.71
2023-04-26T01:25:49.810Z,24.71
2023-04-26T01:28:19.111Z,24.71
2023-04-26T01:30:48.456Z,24.71
2023-04-26T01:33:18.276Z,24.71
2023-04-26T01:35:47.565Z,24.71
2023-04-26T01:38:18.061Z,24.71
2023-04-26T01:40:49.942Z,24.71
2023-04-26T01:43:21.250Z,24.71
2023-04-26T01:45:50.701Z,24.71
2023-04-26T01:48:20.045Z,24.71
2023-04-26T01:50:49.356Z,24.71
2023-04-26T01:53:18.645Z,24.71
2023-04-26T01:55:50.548Z,24.71
2023-04-26T01:58:19.844Z,24.71
2023-04-26T02:00:49.126Z,24.71
2023-04-26T02:03:18.502Z,24.71
2023-04-26T02:05:47.920Z,24.71
2023-04-26T02:08:17.219Z,24.71
2023-04-26T02:10:46.535Z,24.72
2023-04-26T02:13:19.572Z,24.73
2023-04-26T02:15:49.210Z,24.75
2023-04-26T02:18:22.190Z,-139.00
2023-04-26T02:20:51.693Z,-139.00
2023-04-26T02:23:21.033Z,24.71
2023-04-26T02:25:51.049Z,24.71
2023-04-26T02:28:22.948Z,24.71
2023-04-26T02:30:52.468Z,24.71
2023-04-26T02:33:21.818Z,24.71
2023-04-26T02:35:51.126Z,24.71
2023-04-26T02:55:49.117Z,24.71
2023-04-26T03:00:54.825Z,24.71
2023-04-26T03:03:24.737Z,24.71
2023-04-26T03:05:54.213Z,24.79
2023-04-26T03:08:23.592Z,-139.00
2023-04-26T03:13:22.253Z,24.71
2023-04-26T03:15:54.177Z,24.71
2023-04-26T03:18:23.464Z,24.71
2023-04-26T03:23:24.397Z,24.71
2023-04-26T03:28:23.187Z,24.71
2023-04-26T03:30:55.100Z,24.71
2023-04-26T03:33:24.395Z,24.71
2023-04-26T03:35:53.971Z,24.71
2023-04-26T03:38:23.832Z,24.71
2023-04-26T03:40:53.131Z,24.71
2023-04-26T03:43:22.419Z,24.71
2023-04-26T03:45:52.219Z,24.71
2023-04-26T03:48:24.255Z,24.71
2023-04-26T03:50:53.611Z,24.71
2023-04-26T03:53:22.893Z,24.71
2023-04-26T03:58:21.575Z,24.71
2023-04-26T04:00:50.878Z,24.71
2023-04-26T04:03:21.355Z,24.73
2023-04-26T04:05:53.406Z,24.71
2023-04-26T04:10:52.356Z,24.71
2023-04-26T04:13:21.693Z,24.71
2023-04-26T04:15:51.033Z,24.71
2023-04-26T04:18:20.388Z,24.71
2023-04-26T04:20:49.763Z,24.71
2023-04-26T04:23:21.663Z,24.71
2023-04-26T04:28:22.699Z,24.71
2023-04-26T04:30:52.073Z,24.71
2023-04-26T04:33:21.392Z,24.71
2023-04-26T04:35:50.994Z,24.71
2023-04-26T04:38:23.452Z,24.71
2023-04-26T04:40:52.914Z,24.71
2023-04-26T04:43:23.639Z,24.71
2023-04-26T04:45:52.987Z,24.71
2023-04-26T04:48:22.282Z,24.71
2023-04-26T04:50:52.068Z,24.72
2023-04-26T04:53:23.937Z,24.72
2023-04-26T04:58:22.657Z,24.71
2023-04-26T05:00:54.277Z,24.71
2023-04-26T05:03:23.748Z,24.71
2023-04-26T05:08:25.084Z,24.79
2023-04-26T05:10:55.617Z,-139.00
2023-04-26T05:13:25.161Z,-139.00
2023-04-26T05:15:54.574Z,-139.00
2023-04-26T05:18:23.926Z,-139.00
2023-04-26T05:20:53.229Z,-139.00
2023-04-26T05:40:50.834Z,-139.00
2023-04-26T05:56:00.931Z,24.79
2023-04-26T08:51:03.809Z,10.44
2023-04-26T08:53:33.360Z,10.44
2023-04-26T08:56:02.673Z,10.44
2023-04-26T08:58:32.562Z,10.44
2023-04-26T09:06:05.658Z,10.44
2023-04-26T09:08:34.978Z,10.44
2023-04-26T09:11:04.266Z,10.44
2023-04-26T09:13:33.580Z,10.44
2023-04-26T09:16:04.808Z,10.44
2023-04-26T09:18:37.184Z,-139.00
2023-04-26T09:21:07.204Z,-139.00
2023-04-26T09:23:36.866Z,-139.00
2023-04-26T09:26:18.418Z,-139.00
2023-04-26T09:28:48.006Z,-139.00
2023-04-26T09:31:17.916Z,-139.00
2023-04-26T09:34:02.884Z,-139.00
2023-04-26T09:36:34.795Z,-139.00
2023-04-26T09:39:04.311Z,-139.00
2023-04-26T09:41:45.042Z,-139.00
2023-04-26T09:44:23.891Z,-139.00
2023-04-26T09:47:03.304Z,-139.00
2023-04-26T09:49:33.636Z,-139.00
2023-04-26T09:52:08.787Z,-139.00
2023-04-26T09:54:41.732Z,-139.00
2023-04-26T09:57:11.055Z,-139.00
2023-04-26T09:59:44.026Z,-139.00
2023-04-26T11:34:56.503Z,-139.00
2023-04-26T15:37:15.836Z,15.01
2023-04-26T15:39:45.212Z,15.01
2023-04-26T15:42:14.520Z,15.01
2023-04-26T15:44:43.850Z,15.01
2023-04-26T15:49:42.739Z,15.01
2023-04-26T15:52:12.100Z,15.01
2023-04-26T15:54:43.999Z,15.01
2023-04-26T15:57:13.728Z,15.01
2023-04-26T15:59:43.140Z,15.01
2023-04-26T16:02:12.547Z,15.01
2023-04-26T16:04:42.436Z,15.01
2023-04-26T16:07:11.960Z,15.01
2023-04-26T16:09:45.052Z,15.01
2023-04-26T16:12:14.335Z,15.01
2023-04-26T16:17:13.020Z,15.01
2023-04-26T16:19:42.464Z,15.01
2023-04-26T16:22:11.902Z,15.01
2023-04-26T16:24:43.799Z,15.01
2023-04-26T16:27:13.354Z,15.01
2023-04-26T21:02:31.206Z,15.01
2023-04-26T21:05:01.161Z,15.01
2023-04-26T21:07:33.390Z,15.01
2023-04-26T21:10:02.762Z,15.01
2023-04-26T21:12:32.091Z,15.01
2023-04-26T21:15:01.513Z,15.01
2023-04-26T21:17:30.883Z,15.01
2023-04-26T21:20:00.203Z,15.01
2023-04-26T21:22:29.519Z,15.01
2023-04-26T21:25:01.386Z,15.01
2023-04-26T21:34:58.849Z,15.01
2023-04-26T21:37:28.186Z,15.01
2023-04-26T21:39:57.495Z,15.01
2023-04-26T21:42:29.387Z,15.01
2023-04-26T21:44:58.710Z,15.01
2023-04-26T21:47:28.354Z,15.01
2023-04-26T21:49:57.639Z,15.01
2023-04-26T21:52:26.997Z,15.01
2023-04-26T21:54:56.309Z,15.01
2023-04-26T21:57:25.654Z,15.01
2023-04-26T21:59:57.534Z,15.01
2023-04-26T22:02:27.164Z,15.01
2023-04-26T22:04:57.055Z,15.01
2023-04-26T22:07:26.431Z,15.01
2023-04-26T22:09:56.373Z,15.01
2023-04-26T22:12:25.754Z,15.01
2023-04-26T22:19:56.611Z,15.01
2023-04-26T22:22:26.302Z,15.01
2023-04-26T22:24:55.731Z,15.01
2023-04-26T22:29:56.994Z,15.01
2023-04-26T22:32:26.386Z,15.01
2023-04-26T22:37:25.130Z,15.01
2023-04-26T22:39:56.541Z,15.01
2023-04-26T22:42:25.885Z,15.01
2023-04-26T22:47:27.210Z,15.01
2023-04-26T22:49:56.523Z,15.01
2023-04-26T22:52:31.383Z,15.01
